Terminal Aerodrome Forecast
Issued by NWS Jackson, KY

Home | Current Version | Previous Version | Text Only | Print | Product List | Glossary On
Versions: 1 2 3 4 5 6 7 8 9 10 11 12 13 14 15 16 17 18 19 20 21 22 23 24
000
FTUS43 KJKL 172300 RRA
TAFJKL
TAF
KJKL 172342Z 1800/1824 VRB03KT P6SM SCT025 BKN045 OVC070
     FM180600 VRB03KT 3SM SHRA SCT015 OVC025
     FM180900 21003KT 2SM -SHRA BR BKN003 OVC012
     FM181300 25007KT 5SM BR OVC015
     FM181900 27007KT P6SM OVC025
     FM182000 26007KT P6SM BKN050=

USA.gov is the U.S. government's official web portal to all federal, state and local government web resources and services.